Time;durP1;ratioP1;P1;durP2;ratioP2;P2;SDS_P1;SDS_P2;PMS_P1;PMS_P2;Temp;Humidity;BMP_temperature;BMP_pressure;BME280_temperature;BME280_humidity;BME280_pressure;Samples;Min_cycle;Max_cycle;Signal;HPM_P1;HPM_P2
2021/08/20 00:00:44;;;;;;;6.62;3.92;;;;;;;18.11;75.44;100045.27;1852271;77;21001;-87
2021/08/20 00:03:10;;;;;;;5.62;4.05;;;;;;;18.09;75.46;100041.91;1847577;78;21060;-87
2021/08/20 00:05:36;;;;;;;4.90;3.35;;;;;;;18.04;75.53;100048.59;1847677;78;20927;-86
2021/08/20 00:08:02;;;;;;;4.25;3.47;;;;;;;18.01;75.62;100047.59;1847603;78;20977;-87
2021/08/20 00:10:28;;;;;;;5.17;3.40;;;;;;;18.00;75.67;100044.59;1847771;78;21432;-87
2021/08/20 00:12:54;;;;;;;9.48;3.37;;;;;;;18.01;75.72;100040.91;1847741;78;20969;-87
2021/08/20 00:15:20;;;;;;;4.75;3.37;;;;;;;18.01;75.69;100042.25;1847713;78;21033;-87
2021/08/20 00:17:46;;;;;;;5.47;4.33;;;;;;;18.00;75.83;100045.10;1847558;78;20933;-87
2021/08/20 00:20:13;;;;;;;5.50;4.33;;;;;;;18.00;75.94;100041.09;1847755;77;20957;-87
2021/08/20 00:22:39;;;;;;;8.40;4.62;;;;;;;17.99;75.89;100040.74;1847572;77;20993;-87
2021/08/20 00:25:06;;;;;;;8.58;4.75;;;;;;;17.99;75.89;100036.73;1847777;77;20953;-87
2021/08/20 00:27:32;;;;;;;7.08;4.85;;;;;;;17.99;76.05;100040.74;1847614;77;21020;-87
2021/08/20 00:29:58;;;;;;;8.95;4.70;;;;;;;17.99;76.31;100036.73;1847661;78;21464;-87
2021/08/20 00:32:24;;;;;;;6.30;4.12;;;;;;;18.00;76.55;100041.92;1847395;78;20985;-87
2021/08/20 00:34:49;;;;;;;10.43;4.72;;;;;;;18.00;76.55;100034.42;1847719;78;21604;-87
2021/08/20 00:37:16;;;;;;;7.83;4.12;;;;;;;18.01;76.73;100034.75;1847430;78;20950;-87
2021/08/20 00:39:42;;;;;;;6.03;3.90;;;;;;;18.01;76.60;100034.75;1847800;77;20993;-87
2021/08/20 00:42:08;;;;;;;5.80;3.40;;;;;;;18.01;76.65;100036.08;1847576;78;20957;-87
2021/08/20 00:44:35;;;;;;;4.60;3.77;;;;;;;18.00;76.47;100028.58;1847654;77;21253;-87
2021/08/20 00:47:02;;;;;;;5.72;4.17;;;;;;;18.00;76.60;100031.25;1847599;77;20985;-87
2021/08/20 00:49:28;;;;;;;4.90;3.70;;;;;;;18.00;76.62;100031.25;1847719;78;21052;-87
2021/08/20 00:51:55;;;;;;;5.35;4.12;;;;;;;18.00;76.60;100029.91;1847596;78;21031;-87
2021/08/20 00:54:21;;;;;;;5.20;3.87;;;;;;;18.01;76.50;100036.08;1847692;78;20938;-87
2021/08/20 00:56:48;;;;;;;6.50;4.37;;;;;;;18.00;76.47;100033.09;1847566;77;20950;-87
2021/08/20 00:59:16;;;;;;;5.15;3.90;;;;;;;17.99;76.49;100031.40;1847767;77;20965;-87
2021/08/20 01:01:43;;;;;;;6.12;3.83;;;;;;;17.99;76.50;100034.06;1847501;78;21040;-87
2021/08/20 01:04:09;;;;;;;5.22;3.62;;;;;;;17.97;76.46;100032.08;1846891;77;21020;-87
2021/08/20 01:06:37;;;;;;;6.33;3.70;;;;;;;17.97;76.69;100041.42;1847480;78;21032;-87
2021/08/20 01:09:05;;;;;;;4.10;3.70;;;;;;;17.96;76.58;100039.23;1847559;78;21474;-87
2021/08/20 01:11:31;;;;;;;4.55;3.40;;;;;;;17.94;76.71;100036.42;1847530;77;21024;-87
2021/08/20 01:13:57;;;;;;;5.40;3.92;;;;;;;17.92;76.84;100035.23;1847700;77;21017;-87
2021/08/20 01:16:23;;;;;;;3.98;3.58;;;;;;;17.91;76.94;100038.08;1847730;78;21029;-87
2021/08/20 01:18:49;;;;;;;5.80;4.17;;;;;;;17.90;77.03;100035.06;1847545;78;20985;-87
2021/08/20 01:21:20;;;;;;;4.50;3.90;;;;;;;17.90;77.08;100037.25;1847657;77;20981;-87
2021/08/20 01:23:58;;;;;;;5.05;3.52;;;;;;;17.89;77.02;100038.23;1845545;78;21024;-87
2021/08/20 01:26:26;;;;;;;6.00;3.62;;;;;;;17.87;77.26;100040.72;1847263;78;21072;-87
2021/08/20 01:28:54;;;;;;;4.25;3.67;;;;;;;17.86;77.11;100047.07;1847478;77;21020;-87
2021/08/20 01:31:21;;;;;;;6.42;4.00;;;;;;;17.85;77.24;100048.08;1847687;78;21048;-87
2021/08/20 01:33:47;;;;;;;6.65;3.83;;;;;;;17.84;77.08;100047.25;1847425;78;21013;-87
2021/08/20 01:36:13;;;;;;;4.92;3.90;;;;;;;17.84;77.08;100047.25;1847574;78;21452;-87
2021/08/20 01:38:55;;;;;;;5.40;4.10;;;;;;;17.84;77.38;100043.75;1847476;77;20992;-87
2021/08/20 01:41:25;;;;;;;5.87;3.70;;;;;;;17.75;77.47;100028.19;1847717;78;20973;-88
2021/08/20 01:43:52;;;;;;;6.03;4.10;;;;;;;17.81;77.47;100043.58;1847549;77;21021;-88
2021/08/20 01:46:19;;;;;;;5.35;3.98;;;;;;;17.78;77.70;100047.41;1847546;78;20973;-88
2021/08/20 01:48:58;;;;;;;6.85;4.00;;;;;;;17.78;77.70;100047.41;1847251;77;21040;-88
2021/08/20 01:51:28;;;;;;;5.00;4.33;;;;;;;17.78;77.77;100046.06;1847659;77;20989;-87
2021/08/20 01:53:57;;;;;;;5.58;4.08;;;;;;;17.78;77.69;100052.73;1846105;77;21547;-88
2021/08/20 01:56:25;;;;;;;4.95;4.22;;;;;;;17.63;77.80;100030.33;1847643;78;21491;-88
2021/08/20 01:58:53;;;;;;;5.12;4.30;;;;;;;17.75;77.79;100055.70;1847498;78;21424;-88
2021/08/20 02:01:20;;;;;;;4.15;3.70;;;;;;;17.74;77.82;100053.21;1847688;77;20989;-88
2021/08/20 02:03:46;;;;;;;5.00;3.50;;;;;;;17.58;77.75;100024.16;1847537;78;20973;-88
2021/08/20 02:06:12;;;;;;;5.22;4.35;;;;;;;17.71;77.94;100049.03;1847672;78;21468;-88
2021/08/20 02:08:39;;;;;;;5.70;3.58;;;;;;;17.70;78.02;100044.70;1847405;78;21016;-88
2021/08/20 02:11:05;;;;;;;6.42;4.15;;;;;;;17.60;78.02;100023.98;1847647;77;20981;-88
2021/08/20 02:13:31;;;;;;;6.55;4.28;;;;;;;17.70;78.34;100037.17;1847555;78;21024;-88
2021/08/20 02:15:58;;;;;;;4.37;3.70;;;;;;;17.70;78.22;100046.03;1847721;77;20945;-88
2021/08/20 02:18:25;;;;;;;12.80;4.53;;;;;;;17.70;78.36;100043.37;1824048;78;21372;-88
2021/08/20 02:20:51;;;;;;;6.42;4.95;;;;;;;17.70;78.36;100043.37;1847684;78;21518;-88
2021/08/20 02:23:17;;;;;;;6.97;4.78;;;;;;;17.56;78.27;100010.64;1847637;78;21029;-88
2021/08/20 02:25:43;;;;;;;6.15;4.12;;;;;;;17.70;78.42;100042.03;1847689;78;21388;-87
2021/08/20 02:28:10;;;;;;;5.97;5.05;;;;;;;17.49;78.17;100009.63;1847428;78;20992;-88
2021/08/20 02:30:36;;;;;;;5.53;4.35;;;;;;;17.69;78.74;100036.84;1847696;78;21001;-88
2021/08/20 02:33:02;;;;;;;5.00;4.05;;;;;;;17.69;78.74;100036.84;1847703;77;21491;-88
2021/08/20 02:35:28;;;;;;;5.30;4.80;;;;;;;17.68;78.64;100029.84;1847672;78;21510;-88
2021/08/20 02:37:56;;;;;;;5.67;4.83;;;;;;;17.56;79.00;100009.31;1847618;77;21230;-88
2021/08/20 02:40:23;;;;;;;5.55;3.87;;;;;;;17.56;79.00;100009.31;1847708;77;20969;-88
2021/08/20 02:42:50;;;;;;;8.08;5.10;;;;;;;17.67;78.88;100035.69;1847630;78;21009;-88
2021/08/20 02:45:16;;;;;;;6.45;4.58;;;;;;;17.67;78.93;100035.69;1847550;78;20997;-88
2021/08/20 02:47:42;;;;;;;6.50;4.78;;;;;;;17.66;79.08;100031.33;1847734;77;20969;-88
2021/08/20 02:50:09;;;;;;;4.70;4.05;;;;;;;17.65;79.00;100028.84;1847614;78;20985;-88
2021/08/20 02:52:35;;;;;;;9.23;4.58;;;;;;;17.63;79.66;100031.66;1847532;78;20961;-88
2021/08/20 02:55:01;;;;;;;5.78;4.28;;;;;;;17.63;79.66;100031.66;1847697;78;21024;-88
2021/08/20 02:57:28;;;;;;;5.03;4.33;;;;;;;17.63;79.43;100034.33;1847528;77;21497;-89
2021/08/20 02:59:56;;;;;;;6.05;4.22;;;;;;;17.62;79.51;100033.17;1847422;78;20977;-88
2021/08/20 03:02:22;;;;;;;6.53;5.10;;;;;;;17.61;79.31;100031.00;1847491;78;20942;-88
2021/08/20 03:04:48;;;;;;;6.58;4.35;;;;;;;17.43;79.32;100004.44;1847668;78;20970;-88
2021/08/20 03:07:14;;;;;;;5.33;4.37;;;;;;;17.61;79.53;100031.51;1847521;78;20981;-88
2021/08/20 03:09:40;;;;;;;6.62;4.87;;;;;;;17.59;79.61;100036.48;1847821;77;21024;-89
2021/08/20 03:12:07;;;;;;;6.08;4.87;;;;;;;17.61;79.57;100036.34;1847679;77;21460;-88
2021/08/20 03:14:34;;;;;;;9.13;4.37;;;;;;;17.59;79.41;100031.16;1847725;77;20941;-89
2021/08/20 03:17:00;;;;;;;4.70;4.17;;;;;;;17.58;79.33;100034.00;1847549;78;20985;-88
2021/08/20 03:19:26;;;;;;;8.50;4.35;;;;;;;17.58;79.28;100032.66;1847689;78;21092;-88
2021/08/20 03:21:52;;;;;;;5.10;4.35;;;;;;;17.56;79.35;100034.65;1847530;77;21008;-88
2021/08/20 03:24:18;;;;;;;5.40;4.42;;;;;;;17.55;79.34;100035.66;1847641;78;20992;-89
2021/08/20 03:26:44;;;;;;;6.65;4.55;;;;;;;17.54;79.58;100038.00;1847617;77;21625;-89
2021/08/20 03:29:10;;;;;;;5.85;4.05;;;;;;;17.54;79.71;100038.83;1847662;77;21451;-88
2021/08/20 03:31:36;;;;;;;5.20;4.70;;;;;;;17.53;79.86;100041.14;1847630;78;21009;-89
2021/08/20 03:34:02;;;;;;;8.43;4.67;;;;;;;17.53;79.81;100037.64;1847544;77;21008;-88
2021/08/20 03:36:28;;;;;;;5.92;3.98;;;;;;;17.52;79.70;100040.81;1847713;78;20954;-89
2021/08/20 03:38:54;;;;;;;5.53;4.15;;;;;;;17.52;79.80;100038.65;1847689;77;20980;-89
2021/08/20 03:41:22;;;;;;;5.80;4.92;;;;;;;17.52;79.66;100044.81;1847623;78;20954;-88
2021/08/20 03:43:48;;;;;;;6.87;4.50;;;;;;;17.52;79.66;100041.31;1847453;78;20978;-89
2021/08/20 03:46:15;;;;;;;6.97;4.83;;;;;;;17.44;79.62;100027.94;1847645;77;21129;-89
2021/08/20 03:48:44;;;;;;;6.85;4.35;;;;;;;17.52;79.91;100045.31;1847635;78;21012;-89
2021/08/20 03:51:11;;;;;;;6.80;4.47;;;;;;;17.52;80.04;100045.31;1847659;78;21010;-88
2021/08/20 03:53:37;;;;;;;6.85;4.55;;;;;;;17.52;80.16;100045.31;1847617;77;21048;-88
2021/08/20 03:56:04;;;;;;;7.87;5.45;;;;;;;17.48;80.37;100038.64;1847763;77;20957;-88
2021/08/20 03:58:30;;;;;;;10.08;6.08;;;;;;;17.52;80.62;100047.98;1847227;77;21490;-88
2021/08/20 04:00:56;;;;;;;10.15;5.87;;;;;;;17.50;80.74;100053.97;1847792;77;20989;-89
2021/08/20 04:03:23;;;;;;;7.92;5.10;;;;;;;17.38;80.78;100041.95;1847586;78;20994;-89
2021/08/20 04:05:50;;;;;;;7.72;5.28;;;;;;;17.38;80.78;100041.95;1847587;78;21024;-89
2021/08/20 04:08:17;;;;;;;9.18;4.75;;;;;;;17.49;80.76;100062.48;1847531;78;21478;-89
2021/08/20 04:10:45;;;;;;;12.35;4.72;;;;;;;17.48;80.73;100066.15;1847834;77;20982;-89
2021/08/20 04:13:12;;;;;;;7.85;4.58;;;;;;;17.33;80.58;100044.59;1847570;78;21328;-89
2021/08/20 04:15:39;;;;;;;9.73;5.28;;;;;;;17.33;80.58;100044.59;1847656;78;21071;-88
2021/08/20 04:18:05;;;;;;;6.72;4.33;;;;;;;17.43;80.64;100072.95;1847551;78;21522;-89
2021/08/20 04:20:32;;;;;;;5.50;4.05;;;;;;;17.43;80.64;100072.95;1847728;78;21035;-89
2021/08/20 04:22:59;;;;;;;4.80;4.30;;;;;;;17.33;80.68;100050.42;1847577;78;21020;-89
2021/08/20 04:25:29;;;;;;;7.42;4.22;;;;;;;17.37;80.68;100073.09;1847725;78;21005;-89
2021/08/20 04:27:55;;;;;;;7.42;5.33;;;;;;;17.35;80.78;100066.61;1847656;77;21511;-89
2021/08/20 04:30:23;;;;;;;6.58;4.75;;;;;;;17.35;80.92;100074.61;1847828;78;20997;-88
2021/08/20 04:32:50;;;;;;;6.80;4.40;;;;;;;17.35;80.88;100069.27;1847723;78;20981;-89
2021/08/20 04:35:16;;;;;;;7.17;5.00;;;;;;;17.35;80.86;100076.44;1847775;78;21472;-89
2021/08/20 04:37:42;;;;;;;6.80;5.00;;;;;;;17.35;80.86;100078.61;1847836;77;21009;-89
2021/08/20 04:40:09;;;;;;;7.05;4.65;;;;;;;17.34;81.06;100070.28;1847867;77;20938;-89
2021/08/20 04:42:37;;;;;;;5.67;4.62;;;;;;;17.34;81.03;100069.42;1847682;77;20993;-89
2021/08/20 04:45:04;;;;;;;6.85;5.33;;;;;;;17.34;81.25;100069.42;1847813;78;21048;-89
2021/08/20 04:47:30;;;;;;;5.67;4.87;;;;;;;17.34;81.19;100070.28;1847236;78;20976;-89
2021/08/20 04:49:56;;;;;;;8.00;5.03;;;;;;;17.35;81.04;100071.94;1847851;78;21017;-89
2021/08/20 04:52:22;;;;;;;6.90;4.70;;;;;;;17.35;81.14;100071.94;1824309;78;21022;-89
2021/08/20 04:54:48;;;;;;;5.72;4.90;;;;;;;17.39;81.10;100068.95;1847916;78;21507;-89
2021/08/20 04:57:14;;;;;;;5.70;4.70;;;;;;;17.40;81.13;100071.95;1847582;78;20953;-89
2021/08/20 04:59:40;;;;;;;8.88;5.17;;;;;;;17.42;81.14;100073.97;1847969;78;20996;-89
2021/08/20 05:02:07;;;;;;;8.58;4.42;;;;;;;17.42;81.21;100064.63;1847290;78;20977;-89
2021/08/20 05:04:36;;;;;;;7.40;5.15;;;;;;;17.43;81.41;100072.45;1847414;77;20989;-89
2021/08/20 05:07:06;;;;;;;6.95;5.05;;;;;;;17.43;81.41;100072.45;1847528;78;20996;-89
2021/08/20 05:09:34;;;;;;;6.97;5.75;;;;;;;17.43;81.37;100075.13;1847680;78;21904;-89
2021/08/20 05:12:02;;;;;;;15.72;8.05;;;;;;;17.42;81.32;100074.80;1846266;77;21488;-89
2021/08/20 05:14:28;;;;;;;12.85;8.98;;;;;;;17.44;81.40;100070.63;1847201;77;21452;-89
2021/08/20 05:16:54;;;;;;;12.05;10.15;;;;;;;17.44;81.42;100074.62;1847691;78;20981;-89
2021/08/20 05:19:20;;;;;;;8.73;5.42;;;;;;;17.45;81.53;100082.48;1847869;78;21021;-89
2021/08/20 05:21:46;;;;;;;7.80;5.83;;;;;;;17.45;81.55;100081.14;1847766;78;20957;-89
2021/08/20 05:24:12;;;;;;;7.97;4.45;;;;;;;17.46;81.47;100081.47;1847745;78;20990;-89
2021/08/20 05:26:38;;;;;;;12.28;6.40;;;;;;;17.47;81.54;100078.30;1847804;78;21016;-89
2021/08/20 05:29:04;;;;;;;9.00;6.00;;;;;;;17.49;81.57;100078.98;1847693;78;21045;-89
2021/08/20 05:31:30;;;;;;;11.63;5.75;;;;;;;17.49;81.59;100079.81;1847803;78;20973;-89
2021/08/20 05:33:56;;;;;;;5.80;4.72;;;;;;;17.51;81.60;100082.34;1847621;77;21052;-90
2021/08/20 05:36:22;;;;;;;11.05;5.25;;;;;;;17.53;81.61;100082.98;1847802;78;20969;-89
2021/08/20 05:38:48;;;;;;;5.50;4.72;;;;;;;17.54;81.67;100082.84;1847735;78;20977;-90
2021/08/20 05:41:14;;;;;;;24.87;5.50;;;;;;;17.58;81.57;100086.02;1847677;78;20945;-89
2021/08/20 05:43:40;;;;;;;9.03;4.70;;;;;;;17.58;81.57;100086.02;1847708;78;21468;-89
2021/08/20 05:46:06;;;;;;;7.65;4.95;;;;;;;17.59;81.66;100087.68;1847709;78;21046;-89
2021/08/20 05:48:32;;;;;;;10.98;5.30;;;;;;;17.59;81.80;100085.84;1847809;77;21005;-90
2021/08/20 05:50:59;;;;;;;7.72;5.47;;;;;;;17.63;81.72;100081.52;1823912;78;21886;-89
2021/08/20 05:53:25;;;;;;;6.90;5.12;;;;;;;17.64;81.71;100088.05;1847794;78;20985;-89
2021/08/20 05:55:51;;;;;;;8.50;5.40;;;;;;;17.58;81.70;100064.67;1824299;78;21017;-90
2021/08/20 05:58:17;;;;;;;11.08;5.83;;;;;;;17.67;81.67;100076.19;1847978;77;21021;-89
2021/08/20 06:00:43;;;;;;;9.48;5.95;;;;;;;17.68;81.76;100083.22;1847760;78;21455;-90
2021/08/20 06:03:09;;;;;;;10.75;6.25;;;;;;;17.71;81.78;100086.39;1847763;78;20965;-89
2021/08/20 06:05:38;;;;;;;8.05;5.92;;;;;;;17.78;82.16;100078.09;1847837;78;20980;-90
2021/08/20 06:08:04;;;;;;;10.75;6.45;;;;;;;17.78;82.16;100078.09;1847616;77;20982;-89
2021/08/20 06:10:31;;;;;;;10.28;8.15;;;;;;;17.86;81.84;100078.59;1847614;77;20985;-90
2021/08/20 06:12:57;;;;;;;11.40;7.22;;;;;;;17.91;81.80;100081.62;1847781;77;21111;-90
2021/08/20 06:15:23;;;;;;;10.18;6.65;;;;;;;17.91;81.80;100081.62;1847840;77;21464;-90
2021/08/20 06:17:50;;;;;;;8.25;5.70;;;;;;;17.96;81.97;100087.78;1847758;77;21004;-91
2021/08/20 06:20:17;;;;;;;10.38;6.47;;;;;;;18.03;81.82;100096.80;1847509;78;21510;-90
2021/08/20 06:22:43;;;;;;;10.53;5.85;;;;;;;18.03;81.82;100096.80;1847769;78;20964;-90
2021/08/20 06:25:10;;;;;;;12.80;5.12;;;;;;;18.08;81.89;100098.48;1847769;78;21004;-90
2021/08/20 06:27:36;;;;;;;13.75;6.53;;;;;;;18.12;81.86;100094.98;1847658;77;21483;-90
2021/08/20 06:30:03;;;;;;;10.03;5.40;;;;;;;18.16;81.87;100098.48;1847939;78;21036;-90
2021/08/20 06:32:29;;;;;;;7.97;5.47;;;;;;;18.20;82.09;100093.16;1847342;78;21033;-90
2021/08/20 06:34:55;;;;;;;12.88;5.90;;;;;;;18.24;81.95;100097.16;1847756;78;21052;-91
2021/08/20 06:37:21;;;;;;;8.28;5.40;;;;;;;18.29;81.94;100099.32;1847697;78;20993;-90
2021/08/20 06:39:48;;;;;;;11.57;6.22;;;;;;;18.33;81.84;100093.14;1848041;78;21012;-91
2021/08/20 06:42:15;;;;;;;9.43;4.90;;;;;;;18.37;81.85;100095.84;1847268;77;21041;-90
2021/08/20 06:44:41;;;;;;;8.78;4.22;;;;;;;18.41;81.60;100100.67;1847503;78;21013;-90
2021/08/20 06:47:07;;;;;;;10.25;5.25;;;;;;;18.45;81.63;100103.33;1847547;77;20981;-90
2021/08/20 06:49:33;;;;;;;7.47;4.80;;;;;;;18.50;81.53;100106.34;1847688;78;20993;-91
2021/08/20 06:51:59;;;;;;;5.12;3.77;;;;;;;18.55;81.90;100107.16;1847742;78;20978;-90
2021/08/20 06:54:26;;;;;;;8.18;3.75;;;;;;;18.59;81.52;100106.33;1847763;78;21009;-91
2021/08/20 06:56:52;;;;;;;5.58;3.37;;;;;;;18.63;81.37;100101.83;1847297;78;21523;-91
2021/08/20 06:59:18;;;;;;;9.60;4.17;;;;;;;18.70;81.21;100108.16;1847849;78;21072;-90
2021/08/20 07:01:44;;;;;;;7.95;4.20;;;;;;;18.75;81.41;100103.66;1847678;78;20966;-91
2021/08/20 07:04:10;;;;;;;4.92;3.83;;;;;;;18.81;80.85;100104.33;1847713;77;21507;-91
2021/08/20 07:06:36;;;;;;;4.62;3.58;;;;;;;18.86;80.97;100097.16;1847598;78;21076;-91
2021/08/20 07:09:02;;;;;;;5.45;3.62;;;;;;;18.93;80.80;100094.13;1847813;78;21831;-90
2021/08/20 07:11:28;;;;;;;7.70;3.67;;;;;;;19.01;80.75;100103.44;1847807;78;21472;-90
2021/08/20 07:13:54;;;;;;;6.83;3.98;;;;;;;19.07;80.38;100105.94;1847507;78;20985;-91
2021/08/20 07:16:21;;;;;;;10.68;4.22;;;;;;;19.12;80.02;100111.63;1847844;78;21009;-91
2021/08/20 07:18:47;;;;;;;6.87;4.35;;;;;;;19.18;79.83;100114.44;1847619;78;21467;-90
2021/08/20 07:21:13;;;;;;;6.85;4.72;;;;;;;19.24;79.70;100119.59;1847677;78;20984;-90
2021/08/20 07:23:39;;;;;;;10.13;4.00;;;;;;;19.30;79.79;100114.89;1847720;78;20965;-90
2021/08/20 07:26:07;;;;;;;4.10;3.15;;;;;;;19.37;79.57;100116.37;1847551;78;20993;-90
2021/08/20 07:28:34;;;;;;;9.25;3.87;;;;;;;19.40;78.79;100112.84;1847194;78;21064;-91
2021/08/20 07:31:01;;;;;;;7.35;3.72;;;;;;;19.49;78.88;100112.81;1847692;77;21440;-91
2021/08/20 07:33:27;;;;;;;9.80;4.15;;;;;;;19.53;79.11;100110.95;1847639;77;21459;-90
2021/08/20 07:35:53;;;;;;;6.53;3.92;;;;;;;19.58;78.77;100107.77;1847611;78;21012;-91
2021/08/20 07:38:19;;;;;;;7.42;3.15;;;;;;;19.65;78.52;100111.43;1847569;78;20993;-90
2021/08/20 07:40:46;;;;;;;5.20;3.80;;;;;;;19.72;78.11;100105.70;1847693;78;21479;-90
2021/08/20 07:43:12;;;;;;;5.50;2.72;;;;;;;19.79;77.58;100112.52;1847702;77;20989;-91
2021/08/20 07:45:38;;;;;;;6.30;3.90;;;;;;;19.86;77.75;100108.95;1847444;77;21451;-90
2021/08/20 07:48:04;;;;;;;4.12;3.00;;;;;;;19.95;77.30;100109.75;1822432;78;21016;-90
2021/08/20 07:50:31;;;;;;;4.00;2.95;;;;;;;20.02;76.54;100107.19;1783111;79;20992;-91
2021/08/20 07:52:57;;;;;;;4.25;3.42;;;;;;;20.10;77.08;100113.34;1814286;79;21017;-90
2021/08/20 07:55:23;;;;;;;4.45;2.62;;;;;;;20.20;76.64;100106.37;1814511;79;21025;-91
2021/08/20 07:57:53;;;;;;;4.20;3.08;;;;;;;20.31;75.84;100110.50;1814051;79;21067;-90
2021/08/20 08:00:25;;;;;;;3.72;2.22;;;;;;;20.39;75.83;100106.39;1814461;79;20966;-89
2021/08/20 08:02:51;;;;;;;5.72;3.33;;;;;;;20.50;76.00;100105.13;1814382;79;21030;-84
2021/08/20 08:05:18;;;;;;;4.67;2.80;;;;;;;20.62;74.32;100110.41;1814106;79;21012;-88
2021/08/20 08:07:44;;;;;;;5.67;3.10;;;;;;;20.67;73.95;100107.20;1812058;78;21037;-89
2021/08/20 08:10:11;;;;;;;3.60;3.17;;;;;;;20.71;74.09;100113.34;1816891;78;21532;-89
2021/08/20 08:12:37;;;;;;;3.45;2.85;;;;;;;20.77;74.42;100113.97;1812750;79;21515;-89
2021/08/20 08:15:06;;;;;;;6.70;2.80;;;;;;;20.84;73.62;100112.72;1807395;79;21013;-90
2021/08/20 08:17:37;;;;;;;3.98;2.70;;;;;;;20.95;73.58;100103.38;1807521;79;21028;-91
2021/08/20 08:20:07;;;;;;;7.30;3.47;;;;;;;21.02;73.41;100101.63;1807514;79;21475;-90
2021/08/20 08:22:33;;;;;;;5.30;2.52;;;;;;;21.09;73.23;100105.23;1810029;79;21475;-90
2021/08/20 08:24:59;;;;;;;5.58;2.85;;;;;;;21.15;72.62;100104.49;1814347;79;21467;-89
2021/08/20 08:27:25;;;;;;;3.27;2.98;;;;;;;21.20;72.40;100104.78;1814257;79;20993;-89
2021/08/20 08:29:51;;;;;;;3.27;2.70;;;;;;;21.26;71.84;100102.70;1814345;79;21020;-89
2021/08/20 08:32:17;;;;;;;4.62;3.27;;;;;;;21.31;72.08;100106.16;1813996;79;20986;-89
2021/08/20 08:34:43;;;;;;;3.67;2.90;;;;;;;21.36;71.63;100108.33;1813984;79;21488;-89
2021/08/20 08:37:09;;;;;;;8.30;2.65;;;;;;;21.38;71.58;100105.76;1814122;79;21062;-90
2021/08/20 08:39:35;;;;;;;3.33;2.80;;;;;;;21.41;71.26;100101.36;1814532;79;21033;-91
2021/08/20 08:42:01;;;;;;;4.10;2.75;;;;;;;21.44;71.56;100104.19;1782778;79;21487;-90
2021/08/20 08:44:28;;;;;;;4.78;4.17;;;;;;;21.48;71.09;100104.95;1803467;79;21489;-91
2021/08/20 08:46:55;;;;;;;6.30;2.90;;;;;;;21.51;71.36;100107.27;1803426;79;21522;-91
2021/08/20 08:49:22;;;;;;;4.85;2.95;;;;;;;21.56;71.02;100105.89;1803287;79;20980;-91
2021/08/20 08:51:49;;;;;;;3.22;2.83;;;;;;;21.60;70.70;100103.97;1804474;79;20989;-89
2021/08/20 08:54:16;;;;;;;4.42;3.10;;;;;;;21.64;70.62;100105.77;1814220;79;20987;-88
2021/08/20 08:56:46;;;;;;;4.37;3.02;;;;;;;21.65;70.15;100106.94;1814173;79;20967;-92
2021/08/20 08:59:13;;;;;;;7.17;3.33;;;;;;;21.68;70.02;100101.68;1813857;79;21003;-90
2021/08/20 09:01:39;;;;;;;4.70;2.90;;;;;;;21.71;70.08;100099.96;1813942;79;20944;-88
2021/08/20 09:04:15;;;;;;;4.85;3.05;;;;;;;21.75;69.68;100101.23;1814441;79;21006;-90
2021/08/20 09:06:46;;;;;;;6.20;3.25;;;;;;;21.80;69.74;100102.03;1813446;79;20943;-89
2021/08/20 09:09:15;;;;;;;3.83;2.95;;;;;;;21.86;69.71;100105.30;1806732;79;21021;-91
2021/08/20 09:11:42;;;;;;;5.75;3.67;;;;;;;21.92;69.48;100109.41;1807539;79;20947;-91
2021/08/20 09:14:10;;;;;;;5.03;3.12;;;;;;;21.95;69.30;100105.00;1807536;79;20970;-90
2021/08/20 09:16:42;;;;;;;6.28;2.98;;;;;;;22.01;69.30;100106.92;1807097;79;20982;-89
2021/08/20 09:19:18;;;;;;;6.22;2.95;;;;;;;22.04;68.63;100108.89;1807610;79;21472;-90
2021/08/20 09:21:54;;;;;;;4.28;2.92;;;;;;;22.07;68.55;100112.53;1803898;79;21006;-91
2021/08/20 09:24:43;;;;;;;3.70;2.85;;;;;;;22.09;68.83;100116.70;1767608;80;21031;-89
2021/08/20 09:27:24;;;;;;;5.05;3.02;;;;;;;22.14;67.73;100116.12;1778317;80;20960;-91
2021/08/20 09:30:08;;;;;;;3.67;2.50;;;;;;;22.18;67.37;100110.73;1779345;80;21007;-90
2021/08/20 09:32:52;;;;;;;3.65;2.95;;;;;;;22.20;67.85;100111.36;1778091;80;21082;-89
2021/08/20 09:35:15;;;;;;;4.35;3.37;;;;;;;22.23;67.20;100111.80;1779271;80;21035;-90
2021/08/20 09:37:41;;;;;;;5.10;3.27;;;;;;;22.27;67.25;100112.77;1778669;79;21047;-91
2021/08/20 09:40:11;;;;;;;5.08;3.27;;;;;;;22.28;67.48;100109.90;1779224;80;20999;-92
2021/08/20 09:42:37;;;;;;;5.03;2.90;;;;;;;22.29;67.14;100102.66;1779181;80;21569;-91
2021/08/20 09:45:23;;;;;;;4.00;2.87;;;;;;;22.31;66.61;100104.14;1778948;79;21007;-91
2021/08/20 09:47:55;;;;;;;5.08;2.80;;;;;;;22.31;66.41;100097.42;1778857;80;21006;-90
2021/08/20 09:50:41;;;;;;;3.98;2.87;;;;;;;22.35;66.62;100106.75;1778503;80;20992;-92
2021/08/20 09:53:12;;;;;;;4.22;2.95;;;;;;;22.37;66.56;100101.17;1778151;80;21534;-88
2021/08/20 09:55:41;;;;;;;4.45;3.20;;;;;;;22.37;65.78;100101.99;1779012;80;21062;-88
2021/08/20 09:58:10;;;;;;;4.70;3.10;;;;;;;22.38;65.87;100109.05;1779130;80;20995;-90
2021/08/20 10:00:37;;;;;;;3.83;2.90;;;;;;;22.38;65.92;100102.34;1779521;80;21047;-89
2021/08/20 10:03:07;;;;;;;6.28;3.15;;;;;;;22.38;65.61;100105.02;1779121;80;21481;-90
2021/08/20 10:05:34;;;;;;;3.67;2.70;;;;;;;22.38;65.99;100098.30;1780261;80;21008;-90
2021/08/20 10:08:01;;;;;;;6.45;2.62;;;;;;;22.41;66.18;100101.13;1779681;80;20988;-89
2021/08/20 10:10:32;;;;;;;5.65;3.75;;;;;;;22.43;66.73;100105.77;1779055;80;21015;-90
2021/08/20 10:12:58;;;;;;;5.30;3.47;;;;;;;22.46;66.20;100094.64;1778996;79;20980;-88
2021/08/20 10:15:25;;;;;;;4.37;2.90;;;;;;;22.50;66.71;100096.42;1779366;80;21023;-88
2021/08/20 10:17:53;;;;;;;2.83;2.60;;;;;;;22.54;66.43;100094.52;1779052;79;21003;-89
2021/08/20 10:20:19;;;;;;;5.10;3.72;;;;;;;22.59;66.22;100091.22;1779029;80;21042;-89
2021/08/20 10:22:45;;;;;;;4.47;3.95;;;;;;;22.63;65.45;100089.80;1779270;80;21463;-89
2021/08/20 10:25:11;;;;;;;5.28;3.65;;;;;;;22.65;65.60;100089.10;1779889;79;21018;-89
2021/08/20 10:27:40;;;;;;;4.00;3.00;;;;;;;22.67;65.47;100089.23;1779785;80;21497;-88
2021/08/20 10:30:08;;;;;;;7.62;3.30;;;;;;;22.70;64.96;100090.19;1769590;80;21609;-86
2021/08/20 10:32:34;;;;;;;6.50;3.50;;;;;;;22.73;65.46;100097.01;1767465;80;21003;-88
2021/08/20 10:35:00;;;;;;;5.75;3.27;;;;;;;22.76;65.41;100092.58;1767308;80;21074;-89
2021/08/20 10:37:30;;;;;;;6.08;3.62;;;;;;;22.77;65.44;100088.03;1789373;79;21045;-90
2021/08/20 10:40:19;;;;;;;3.37;2.83;;;;;;;22.79;65.86;100093.53;1807143;79;21043;-90
2021/08/20 10:42:48;;;;;;;4.60;2.37;;;;;;;22.81;66.15;100093.36;1806277;79;20985;-89
2021/08/20 10:45:13;;;;;;;6.37;2.92;;;;;;;22.84;65.57;100080.86;1807160;79;21017;-89
2021/08/20 10:47:40;;;;;;;6.40;3.00;;;;;;;22.89;65.01;100090.50;1807089;79;21062;-91
2021/08/20 10:50:21;;;;;;;3.60;2.58;;;;;;;22.87;64.62;100080.47;1807255;79;21353;-89
2021/08/20 10:52:50;;;;;;;4.50;2.98;;;;;;;22.89;64.61;100091.33;1813578;79;20982;-86
2021/08/20 10:55:32;;;;;;;18.30;3.52;;;;;;;22.92;64.90;100093.63;1819101;78;20961;-91
2021/08/20 10:58:06;;;;;;;3.33;2.87;;;;;;;22.93;64.35;100091.79;1818960;78;20996;-90
2021/08/20 11:00:36;;;;;;;5.35;3.35;;;;;;;22.92;64.06;100090.11;1752057;82;21014;-91
2021/08/20 11:03:05;;;;;;;4.62;3.12;;;;;;;22.89;64.44;100088.63;1818991;79;21020;-90
2021/08/20 11:05:48;;;;;;;4.28;3.25;;;;;;;22.89;64.28;100092.67;1819388;79;21009;-92
2021/08/20 11:08:31;;;;;;;9.50;4.50;;;;;;;22.86;64.50;100088.20;1815479;78;21019;-90
2021/08/20 11:10:59;;;;;;;6.78;2.90;;;;;;;22.89;64.32;100095.36;1814171;79;21794;-90
2021/08/20 11:13:26;;;;;;;4.50;3.17;;;;;;;22.92;64.15;100089.59;1814336;79;21139;-90
2021/08/20 11:15:54;;;;;;;6.60;3.15;;;;;;;22.96;64.55;100091.39;1814536;79;20966;-90
2021/08/20 11:18:45;;;;;;;3.17;2.87;;;;;;;23.00;64.42;100085.96;1814039;79;21019;-89
2021/08/20 11:21:46;;;;;;;3.80;3.15;;;;;;;23.01;63.83;100089.48;1814417;79;21014;-90
2021/08/20 11:24:18;;;;;;;4.95;2.85;;;;;;;23.03;63.84;100090.09;1781399;80;21009;-89
2021/08/20 11:26:45;;;;;;;3.22;2.92;;;;;;;23.04;63.69;100086.39;1781986;80;20997;-87